createdAt,value
2023-11-05T00:00:10.433Z,2.80
2023-11-05T00:02:41.326Z,2.80
2023-11-05T00:07:38.028Z,2.90
2023-11-05T00:10:07.010Z,3.10
2023-11-05T00:12:34.737Z,3.10
2023-11-05T00:15:02.280Z,3.30
2023-11-05T00:17:30.030Z,3.10
2023-11-05T00:19:59.053Z,3.10
2023-11-05T00:22:27.003Z,3.80
2023-11-05T00:27:22.368Z,3.20
2023-11-05T00:29:50.167Z,3.30
2023-11-05T00:32:18.179Z,4.10
2023-11-05T00:34:46.815Z,3.90
2023-11-05T00:37:14.534Z,3.70
2023-11-05T00:39:44.487Z,4.30
2023-11-05T00:42:12.478Z,4.30
2023-11-05T00:44:40.189Z,5.10
2023-11-05T00:47:07.953Z,4.10
2023-11-05T00:49:35.628Z,4.80
2023-11-05T00:52:04.769Z,5.00
2023-11-05T00:54:32.809Z,5.10
2023-11-05T01:01:58.759Z,4.10
2023-11-05T01:04:26.441Z,5.20
2023-11-05T01:06:54.032Z,4.60
2023-11-05T01:09:21.973Z,4.10
2023-11-05T01:14:17.176Z,3.50
2023-11-05T01:16:44.832Z,3.90
2023-11-05T01:19:13.412Z,3.30
2023-11-05T01:21:41.292Z,3.00
2023-11-05T01:24:09.609Z,2.30
2023-11-05T01:26:38.009Z,1.20
2023-11-05T01:29:06.273Z,0.60
2023-11-05T01:31:34.543Z,0.30
2023-11-05T01:34:02.574Z,0.20
2023-11-05T01:41:25.628Z,0.10
2023-11-05T01:43:53.596Z,0.10
2023-11-05T01:46:21.537Z,0.10
2023-11-05T01:51:17.440Z,0.20
2023-11-05T01:53:45.430Z,0.20
2023-11-05T01:58:41.024Z,0.20
2023-11-05T02:01:11.107Z,0.30
2023-11-05T02:03:39.563Z,0.20
2023-11-05T02:06:07.608Z,0.10
2023-11-05T02:11:03.163Z,0.10
2023-11-05T02:13:53.769Z,0.20
2023-11-05T02:16:22.167Z,0.10
2023-11-05T02:18:50.060Z,0.20
2023-11-05T02:24:08.988Z,0.10
2023-11-05T02:26:36.534Z,0.20
2023-11-05T02:29:04.111Z,0.10
2023-11-05T02:31:31.810Z,0.10
2023-11-05T02:33:59.611Z,0.10
2023-11-05T02:51:13.757Z,0.30
2023-11-05T02:53:41.488Z,0.20
2023-11-05T02:56:09.743Z,0.10
2023-11-05T02:58:38.144Z,0.10
2023-11-05T03:01:06.368Z,0.20
2023-11-05T03:03:34.185Z,0.20
2023-11-05T03:06:02.380Z,0.20
2023-11-05T03:08:30.275Z,0.20
2023-11-05T03:10:58.074Z,0.60
2023-11-05T03:13:25.955Z,0.20
2023-11-05T03:23:16.494Z,0.10
2023-11-05T03:25:44.331Z,0.20
2023-11-05T03:28:11.906Z,0.20
2023-11-05T03:30:39.761Z,0.20
2023-11-05T03:33:08.148Z,0.30
2023-11-05T03:35:35.952Z,0.30
2023-11-05T03:38:03.741Z,0.20
2023-11-05T03:47:54.380Z,0.80
2023-11-05T03:50:22.380Z,0.70
2023-11-05T03:52:50.041Z,1.10
2023-11-05T03:55:17.783Z,0.90
2023-11-05T03:57:45.643Z,1.10
2023-11-05T04:00:13.925Z,1.10
2023-11-05T04:02:42.047Z,0.90
2023-11-05T04:05:09.799Z,0.70
2023-11-05T04:07:37.527Z,0.40
2023-11-05T04:10:05.840Z,0.30
2023-11-05T04:12:35.869Z,0.30
2023-11-05T04:15:06.825Z,0.30
2023-11-05T04:17:35.523Z,0.40
2023-11-05T04:20:04.284Z,0.30
2023-11-05T04:22:32.468Z,0.80
2023-11-05T04:25:00.208Z,0.20
2023-11-05T04:27:28.267Z,0.20
2023-11-05T04:29:56.107Z,0.30
2023-11-05T04:32:24.890Z,0.20
2023-11-05T04:34:52.579Z,0.30
2023-11-05T04:37:21.274Z,0.30
2023-11-05T04:39:48.958Z,0.30
2023-11-05T04:42:16.952Z,0.20
2023-11-05T04:44:44.699Z,0.30
2023-11-05T04:47:12.372Z,0.40
2023-11-05T04:49:40.199Z,0.60
2023-11-05T04:57:03.244Z,0.40
2023-11-05T04:59:30.908Z,0.40
2023-11-05T05:01:59.987Z,0.50
2023-11-05T05:04:27.994Z,0.50
2023-11-05T05:06:55.925Z,0.60
2023-11-05T05:09:23.772Z,0.60
2023-11-05T05:11:51.688Z,0.50
2023-11-05T05:14:19.424Z,0.80
2023-11-05T05:16:47.292Z,0.70
2023-11-05T05:19:15.317Z,0.20
2023-11-05T05:21:46.285Z,0.30
2023-11-05T05:24:13.957Z,0.40
2023-11-05T05:26:42.056Z,0.40
2023-11-05T05:29:09.898Z,0.30
2023-11-05T05:31:37.904Z,0.50
2023-11-05T05:34:05.624Z,0.60
2023-11-05T05:36:33.245Z,0.40
2023-11-05T05:39:00.815Z,0.60
2023-11-05T05:41:28.736Z,0.50
2023-11-05T05:48:52.149Z,0.70
2023-11-05T05:51:19.948Z,0.70
2023-11-05T05:53:47.716Z,0.60
2023-11-05T05:56:15.567Z,0.50
2023-11-05T06:01:12.263Z,0.60
2023-11-05T06:03:40.057Z,0.50
2023-11-05T06:06:08.373Z,0.50
2023-11-05T06:08:36.086Z,0.50
2023-11-05T06:11:04.800Z,0.60
2023-11-05T06:13:32.548Z,0.50
2023-11-05T06:16:00.160Z,0.70
2023-11-05T06:18:28.180Z,0.50
2023-11-05T06:20:56.845Z,0.70
2023-11-05T06:23:25.045Z,0.40
2023-11-05T06:25:52.914Z,0.50
2023-11-05T06:30:48.371Z,0.70
2023-11-05T06:35:44.043Z,0.60
2023-11-05T06:38:11.685Z,0.60
2023-11-05T06:40:39.385Z,0.50
2023-11-05T06:43:07.093Z,0.70
2023-11-05T06:45:34.759Z,0.70
2023-11-05T06:48:02.651Z,0.50
2023-11-05T06:50:30.345Z,0.60
2023-11-05T06:52:58.103Z,0.50
2023-11-05T06:55:25.888Z,0.70
2023-11-05T07:02:49.765Z,0.70
2023-11-05T07:05:17.635Z,0.80
2023-11-05T07:10:13.270Z,0.60
2023-11-05T07:12:43.334Z,0.80
2023-11-05T07:15:11.647Z,0.90
2023-11-05T07:17:39.930Z,0.80
2023-11-05T07:20:08.269Z,0.80
2023-11-05T07:22:37.474Z,0.70
2023-11-05T07:25:07.140Z,0.70
2023-11-05T07:27:35.444Z,0.60
2023-11-05T07:30:04.964Z,0.80
2023-11-05T07:32:32.812Z,0.80
2023-11-05T07:37:29.508Z,0.90
2023-11-05T07:39:58.260Z,0.70
2023-11-05T07:42:26.181Z,0.80
2023-11-05T07:44:53.782Z,1.00
2023-11-05T07:47:21.803Z,0.90
2023-11-05T07:52:17.847Z,0.70
2023-11-05T07:54:45.732Z,0.80
2023-11-05T07:57:13.659Z,0.40
2023-11-05T07:59:41.480Z,0.90
2023-11-05T08:02:09.353Z,0.50
2023-11-05T08:07:04.571Z,0.60
2023-11-05T08:09:32.496Z,0.70
2023-11-05T08:14:28.157Z,2.20
2023-11-05T08:16:55.688Z,2.30
2023-11-05T08:19:23.529Z,2.50
2023-11-05T08:21:51.172Z,2.50
2023-11-05T08:24:19.291Z,2.00
2023-11-05T08:29:16.651Z,1.90
2023-11-05T08:34:14.782Z,1.70
2023-11-05T08:36:42.587Z,1.70
2023-11-05T08:39:10.503Z,1.10
2023-11-05T08:44:05.858Z,1.00
2023-11-05T08:53:56.932Z,0.60
2023-11-05T08:56:24.520Z,1.00
2023-11-05T08:58:52.240Z,0.60
2023-11-05T09:06:16.661Z,0.60
2023-11-05T09:08:44.791Z,0.50
2023-11-05T09:11:12.702Z,0.60
2023-11-05T09:13:40.297Z,0.60
2023-11-05T09:16:08.386Z,0.50
2023-11-05T09:18:36.023Z,0.80
2023-11-05T09:21:04.433Z,0.50
2023-11-05T09:23:32.581Z,0.60
2023-11-05T09:26:00.348Z,0.60
2023-11-05T09:28:28.100Z,0.40
2023-11-05T09:30:55.752Z,0.30
2023-11-05T09:40:49.186Z,0.50
2023-11-05T09:43:18.067Z,0.40
2023-11-05T09:45:45.756Z,0.60
2023-11-05T09:48:13.541Z,0.40
2023-11-05T09:50:42.864Z,0.60
2023-11-05T09:53:12.255Z,1.50
2023-11-05T09:55:43.232Z,1.40
2023-11-05T09:58:11.000Z,0.50
2023-11-05T10:03:09.310Z,0.80
2023-11-05T10:05:42.208Z,0.70
2023-11-05T10:08:09.934Z,0.60
2023-11-05T10:10:38.881Z,0.50
2023-11-05T10:13:09.094Z,0.40
2023-11-05T10:15:41.279Z,0.60
2023-11-05T10:18:19.989Z,0.80
2023-11-05T10:20:57.397Z,0.40
2023-11-05T10:23:25.745Z,0.40
2023-11-05T10:25:54.840Z,0.70
2023-11-05T10:28:24.324Z,0.40
2023-11-05T10:30:54.429Z,0.30
2023-11-05T10:33:26.483Z,0.20
2023-11-05T10:35:54.332Z,0.20
2023-11-05T10:38:21.953Z,0.40
2023-11-05T10:40:50.321Z,0.20
2023-11-05T10:43:18.012Z,0.30
2023-11-05T10:45:45.756Z,0.40
2023-11-05T10:50:42.132Z,0.50
2023-11-05T10:53:09.969Z,0.30
2023-11-05T10:55:38.618Z,0.40
2023-11-05T10:58:18.439Z,0.40
2023-11-05T11:01:04.747Z,0.50
2023-11-05T11:03:32.706Z,0.50
2023-11-05T11:06:01.440Z,0.60
2023-11-05T11:08:30.979Z,0.50
2023-11-05T11:11:09.942Z,0.40
2023-11-05T11:13:40.072Z,0.30
2023-11-05T11:16:10.025Z,0.40
2023-11-05T11:18:38.749Z,0.40
2023-11-05T11:21:10.209Z,0.40
2023-11-05T11:23:39.655Z,0.50
2023-11-05T11:26:21.966Z,0.50
2023-11-05T11:29:01.641Z,0.60
2023-11-05T11:31:29.672Z,0.50
2023-11-05T11:33:57.522Z,1.10
2023-11-05T11:38:53.152Z,0.50
2023-11-05T11:41:20.933Z,0.40
2023-11-05T11:46:52.227Z,0.50
2023-11-05T11:49:20.043Z,0.70
2023-11-05T11:51:47.741Z,0.50
2023-11-05T11:54:15.434Z,0.90
2023-11-05T11:59:12.308Z,0.70
2023-11-05T12:01:39.979Z,0.70
2023-11-05T12:04:08.521Z,0.70
2023-11-05T12:06:39.056Z,0.70
2023-11-05T12:09:06.893Z,0.60
2023-11-05T12:11:34.608Z,0.80
2023-11-05T12:14:04.077Z,0.40
2023-11-05T12:16:32.016Z,0.40
2023-11-05T12:18:59.992Z,0.40
2023-11-05T12:21:27.651Z,0.50
2023-11-05T12:23:56.103Z,0.60
2023-11-05T12:26:24.102Z,0.50
2023-11-05T12:28:55.197Z,0.70
2023-11-05T12:31:27.260Z,0.60
2023-11-05T12:33:55.926Z,0.80
2023-11-05T12:36:24.504Z,0.50
2023-11-05T12:38:52.736Z,0.60
2023-11-05T12:41:20.374Z,0.40
2023-11-05T12:43:48.143Z,0.70
2023-11-05T12:46:16.017Z,0.90
2023-11-05T12:48:43.757Z,0.40
2023-11-05T12:51:11.472Z,0.40
2023-11-05T12:53:41.937Z,0.30
2023-11-05T12:56:12.840Z,0.40
2023-11-05T12:58:42.299Z,0.50
2023-11-05T13:01:12.768Z,0.50
2023-11-05T13:03:41.258Z,0.40
2023-11-05T13:06:10.534Z,0.60
2023-11-05T13:08:39.549Z,0.60
2023-11-05T13:11:09.230Z,0.50
2023-11-05T13:13:37.115Z,0.50
2023-11-05T13:16:05.455Z,0.40
2023-11-05T13:18:33.348Z,0.60
2023-11-05T13:21:01.738Z,0.60
2023-11-05T13:23:29.816Z,0.40
2023-11-05T13:25:57.916Z,0.50
2023-11-05T13:28:26.153Z,0.70
2023-11-05T13:30:53.837Z,0.50
2023-11-05T13:33:21.609Z,0.80
2023-11-05T13:35:49.477Z,0.50
2023-11-05T13:38:17.157Z,0.40
2023-11-05T13:40:45.944Z,0.50
2023-11-05T13:43:13.885Z,0.60
2023-11-05T13:45:42.281Z,0.60
2023-11-05T13:48:10.128Z,0.60
2023-11-05T13:50:38.230Z,0.50
2023-11-05T13:53:06.285Z,0.50
2023-11-05T13:55:34.103Z,0.70
2023-11-05T13:58:01.828Z,0.40
2023-11-05T14:00:29.483Z,0.50
2023-11-05T14:02:57.904Z,0.50
2023-11-05T14:05:25.934Z,0.50
2023-11-05T14:07:53.721Z,0.40
2023-11-05T14:12:53.120Z,0.50
2023-11-05T14:15:21.671Z,0.40
2023-11-05T14:17:51.266Z,0.50
2023-11-05T14:20:19.051Z,0.40
2023-11-05T14:22:46.701Z,0.50
2023-11-05T14:25:14.566Z,0.70
2023-11-05T14:27:42.387Z,0.50
2023-11-05T14:32:42.283Z,0.70
2023-11-05T14:35:12.954Z,0.60
2023-11-05T14:37:40.764Z,0.80
2023-11-05T14:42:41.216Z,0.90
2023-11-05T14:45:19.539Z,0.90
2023-11-05T14:47:53.802Z,1.00
2023-11-05T14:50:22.774Z,1.00
2023-11-05T14:52:50.925Z,0.90
2023-11-05T14:55:19.219Z,0.80
2023-11-05T15:00:18.269Z,0.70
2023-11-05T15:02:46.800Z,1.30
2023-11-05T15:05:15.702Z,1.10
2023-11-05T15:07:43.434Z,1.30
2023-11-05T15:10:15.726Z,1.00
2023-11-05T15:12:43.578Z,1.20
2023-11-05T15:15:11.368Z,1.00
2023-11-05T15:20:11.460Z,1.20
2023-11-05T15:22:40.745Z,1.80
2023-11-05T15:25:09.419Z,1.60
2023-11-05T15:27:38.236Z,1.80
2023-11-05T15:30:10.357Z,1.70
2023-11-05T15:32:43.299Z,1.70
2023-11-05T15:35:11.263Z,1.90
2023-11-05T15:40:10.276Z,1.80
2023-11-05T15:42:41.764Z,1.80
2023-11-05T15:45:12.188Z,2.00
2023-11-05T15:47:39.988Z,2.20
2023-11-05T15:52:36.087Z,1.80
2023-11-05T15:57:32.365Z,1.90
2023-11-05T16:00:00.019Z,1.90
2023-11-05T16:02:27.725Z,2.10
2023-11-05T16:04:55.480Z,2.30
2023-11-05T16:09:51.402Z,2.60
2023-11-05T16:12:21.676Z,2.10
2023-11-05T16:14:51.559Z,2.00
2023-11-05T16:17:19.670Z,2.20
2023-11-05T16:19:49.750Z,2.20
2023-11-05T16:22:17.752Z,1.90
2023-11-05T16:24:45.681Z,2.70
2023-11-05T16:29:41.704Z,2.00
2023-11-05T16:32:09.537Z,2.50
2023-11-05T16:34:41.789Z,2.80
2023-11-05T16:37:12.597Z,3.10
2023-11-05T16:39:43.345Z,3.00
2023-11-05T16:42:12.234Z,2.90
2023-11-05T16:44:39.856Z,3.10
2023-11-05T16:47:11.577Z,3.10
2023-11-05T16:49:42.201Z,2.70
2023-11-05T16:52:14.945Z,2.90
2023-11-05T16:54:44.857Z,2.80
2023-11-05T16:57:13.007Z,3.30
2023-11-05T16:59:40.751Z,2.10
2023-11-05T17:04:36.505Z,2.60
2023-11-05T17:07:06.673Z,2.90
2023-11-05T17:09:35.379Z,2.50
2023-11-05T17:12:03.159Z,2.80
2023-11-05T17:14:30.756Z,2.90
2023-11-05T17:17:00.529Z,2.80
2023-11-05T17:19:28.342Z,2.70
2023-11-05T17:21:56.037Z,2.50
2023-11-05T17:24:24.051Z,2.60
2023-11-05T17:26:52.077Z,2.50
2023-11-05T17:31:50.765Z,2.80
2023-11-05T17:36:45.978Z,2.40
2023-11-05T17:39:13.798Z,2.10
2023-11-05T17:41:41.433Z,2.30
2023-11-05T17:44:09.327Z,2.60
2023-11-05T17:46:37.437Z,2.60
2023-11-05T17:49:05.334Z,2.60
2023-11-05T17:56:32.662Z,3.60
2023-11-05T17:59:01.173Z,2.20
2023-11-05T18:01:29.235Z,2.70
2023-11-05T18:06:25.488Z,2.70
2023-11-05T18:08:53.804Z,2.80
2023-11-05T18:11:21.545Z,3.30
2023-11-05T18:13:49.439Z,2.80
2023-11-05T18:16:17.451Z,3.20
2023-11-05T18:18:45.217Z,3.10
2023-11-05T18:21:13.031Z,2.70
2023-11-05T18:26:09.010Z,2.80
2023-11-05T18:28:37.100Z,2.90
2023-11-05T18:31:05.063Z,3.10
2023-11-05T18:33:32.899Z,2.60
2023-11-05T18:36:00.473Z,3.40
2023-11-05T18:38:28.233Z,3.00
2023-11-05T18:40:55.926Z,2.80
2023-11-05T18:43:23.567Z,2.80
2023-11-05T18:45:52.340Z,3.10
2023-11-05T18:48:21.998Z,3.20
2023-11-05T18:50:50.284Z,4.20
2023-11-05T18:53:18.138Z,3.20
2023-11-05T18:55:45.745Z,3.50
2023-11-05T18:58:13.587Z,3.40
2023-11-05T19:00:41.590Z,3.20
2023-11-05T19:03:10.705Z,3.00
2023-11-05T19:08:07.722Z,3.20
2023-11-05T19:10:37.099Z,3.60
2023-11-05T19:13:04.783Z,3.40
2023-11-05T19:15:32.830Z,3.50
2023-11-05T19:22:56.947Z,3.70
2023-11-05T19:25:24.639Z,3.20
2023-11-05T19:27:52.766Z,3.70
2023-11-05T19:30:20.807Z,3.90
2023-11-05T19:35:17.142Z,4.20
2023-11-05T19:37:45.471Z,3.80
2023-11-05T19:40:14.516Z,3.90
2023-11-05T19:42:42.221Z,4.00
2023-11-05T19:52:33.485Z,3.40
2023-11-05T19:57:29.291Z,3.90
2023-11-05T19:59:57.336Z,4.40
2023-11-05T20:04:52.611Z,4.30
2023-11-05T20:09:51.375Z,3.60
2023-11-05T20:12:19.202Z,4.90
2023-11-05T20:17:16.430Z,4.20
2023-11-05T20:19:44.452Z,4.60
2023-11-05T20:22:13.513Z,4.70
2023-11-05T20:24:41.306Z,4.60
2023-11-05T20:27:08.914Z,4.50
2023-11-05T20:29:36.898Z,4.20
2023-11-05T20:32:05.675Z,4.70
2023-11-05T20:34:33.347Z,4.20
2023-11-05T20:37:01.433Z,4.90
2023-11-05T20:39:29.196Z,5.00
2023-11-05T20:41:57.769Z,4.40
2023-11-05T20:44:25.872Z,5.00
2023-11-05T20:46:54.418Z,4.90
2023-11-05T20:49:22.829Z,5.00
2023-11-05T20:51:50.526Z,5.20
2023-11-05T20:54:18.216Z,4.70
2023-11-05T20:56:45.869Z,4.70
2023-11-05T20:59:13.758Z,4.10
2023-11-05T21:01:41.528Z,4.60
